sensor_id;sensor_type;location;lat;lon;timestamp;pressure;altitude;pressure_sealevel;temperature;humidity
49935;BME280;39898;41.762;26.200;2022-12-29T00:02:19;102090.63;;;5.30;95.94
49935;BME280;39898;41.762;26.200;2022-12-29T00:04:46;102098.06;;;5.18;96.11
49935;BME280;39898;41.762;26.200;2022-12-29T00:07:12;102101.56;;;5.18;96.32
49935;BME280;39898;41.762;26.200;2022-12-29T00:09:39;102088.41;;;5.14;96.71
49935;BME280;39898;41.762;26.200;2022-12-29T00:12:06;102101.66;;;5.21;96.94
49935;BME280;39898;41.762;26.200;2022-12-29T00:14:32;102094.66;;;5.19;96.50
49935;BME280;39898;41.762;26.200;2022-12-29T00:17:18;102096.28;;;5.15;95.97
49935;BME280;39898;41.762;26.200;2022-12-29T00:19:46;102104.66;;;5.05;96.65
49935;BME280;39898;41.762;26.200;2022-12-29T00:22:32;102108.25;;;5.09;96.07
49935;BME280;39898;41.762;26.200;2022-12-29T00:25:17;102109.00;;;5.06;95.90
49935;BME280;39898;41.762;26.200;2022-12-29T00:28:03;102116.97;;;5.11;96.10
49935;BME280;39898;41.762;26.200;2022-12-29T00:30:49;102092.41;;;5.01;96.44
49935;BME280;39898;41.762;26.200;2022-12-29T00:33:34;102112.41;;;5.03;96.41
49935;BME280;39898;41.762;26.200;2022-12-29T00:36:26;102111.75;;;5.11;96.55
49935;BME280;39898;41.762;26.200;2022-12-29T00:39:10;102126.50;;;5.10;96.01
49935;BME280;39898;41.762;26.200;2022-12-29T00:42:03;102130.06;;;5.14;94.70
49935;BME280;39898;41.762;26.200;2022-12-29T00:45:06;102099.66;;;4.83;94.58
49935;BME280;39898;41.762;26.200;2022-12-29T00:47:32;102121.50;;;4.88;94.82
49935;BME280;39898;41.762;26.200;2022-12-29T00:49:59;102123.44;;;4.95;94.08
49935;BME280;39898;41.762;26.200;2022-12-29T00:52:26;102116.31;;;4.88;93.78
49935;BME280;39898;41.762;26.200;2022-12-29T00:54:52;102102.75;;;4.71;94.59
49935;BME280;39898;41.762;26.200;2022-12-29T00:57:19;102109.72;;;4.71;95.74
49935;BME280;39898;41.762;26.200;2022-12-29T00:59:46;102108.78;;;4.69;95.87
49935;BME280;39898;41.762;26.200;2022-12-29T01:02:12;102110.00;;;4.80;97.07
49935;BME280;39898;41.762;26.200;2022-12-29T01:04:39;102098.47;;;4.72;96.22
49935;BME280;39898;41.762;26.200;2022-12-29T01:07:06;102096.19;;;4.54;96.49
49935;BME280;39898;41.762;26.200;2022-12-29T01:09:33;102068.16;;;4.46;96.64
49935;BME280;39898;41.762;26.200;2022-12-29T01:12:18;102101.56;;;4.60;96.16
49935;BME280;39898;41.762;26.200;2022-12-29T01:15:06;102105.94;;;4.61;95.69
49935;BME280;39898;41.762;26.200;2022-12-29T01:17:33;102100.69;;;4.60;96.04
49935;BME280;39898;41.762;26.200;2022-12-29T01:20:00;102102.19;;;4.52;95.78
49935;BME280;39898;41.762;26.200;2022-12-29T01:22:27;102053.56;;;4.23;95.02
49935;BME280;39898;41.762;26.200;2022-12-29T01:24:54;102093.94;;;4.38;95.57
49935;BME280;39898;41.762;26.200;2022-12-29T01:27:20;102090.28;;;4.32;96.74
49935;BME280;39898;41.762;26.200;2022-12-29T01:29:47;102090.31;;;4.33;96.44
49935;BME280;39898;41.762;26.200;2022-12-29T01:32:14;102083.25;;;4.29;97.53
49935;BME280;39898;41.762;26.200;2022-12-29T01:34:43;102094.56;;;4.31;96.78
49935;BME280;39898;41.762;26.200;2022-12-29T01:37:10;102089.38;;;4.31;97.08
49935;BME280;39898;41.762;26.200;2022-12-29T01:39:37;102074.53;;;4.27;96.43
49935;BME280;39898;41.762;26.200;2022-12-29T01:42:03;102073.50;;;4.22;96.10
49935;BME280;39898;41.762;26.200;2022-12-29T01:47:32;102065.31;;;4.10;96.47
49935;BME280;39898;41.762;26.200;2022-12-29T01:50:10;102054.78;;;4.06;96.70
49935;BME280;39898;41.762;26.200;2022-12-29T01:52:43;102075.03;;;4.16;97.84
49935;BME280;39898;41.762;26.200;2022-12-29T01:55:14;102074.91;;;4.13;97.63
49935;BME280;39898;41.762;26.200;2022-12-29T01:57:46;102057.69;;;3.90;97.58
49935;BME280;39898;41.762;26.200;2022-12-29T02:00:15;102065.84;;;4.00;97.73
49935;BME280;39898;41.762;26.200;2022-12-29T02:02:50;102058.84;;;3.98;98.14
49935;BME280;39898;41.762;26.200;2022-12-29T02:05:32;102059.00;;;4.02;98.01
49935;BME280;39898;41.762;26.200;2022-12-29T02:08:01;102052.13;;;4.04;98.24
49935;BME280;39898;41.762;26.200;2022-12-29T02:10:30;102029.22;;;3.93;98.40
49935;BME280;39898;41.762;26.200;2022-12-29T02:12:58;102034.47;;;3.94;98.12
49935;BME280;39898;41.762;26.200;2022-12-29T02:15:59;102043.41;;;4.02;98.66
49935;BME280;39898;41.762;26.200;2022-12-29T02:21:50;102057.97;;;3.97;97.25
49935;BME280;39898;41.762;26.200;2022-12-29T02:29:57;102057.25;;;4.03;99.11
49935;BME280;39898;41.762;26.200;2022-12-29T02:40:59;102057.59;;;3.87;97.54
49935;BME280;39898;41.762;26.200;2022-12-29T02:51:47;102064.41;;;3.58;97.25
49935;BME280;39898;41.762;26.200;2022-12-29T02:54:18;102030.31;;;3.23;97.70
49935;BME280;39898;41.762;26.200;2022-12-29T02:57:12;102058.84;;;3.23;98.20
49935;BME280;39898;41.762;26.200;2022-12-29T02:59:42;102063.81;;;3.17;99.36
49935;BME280;39898;41.762;26.200;2022-12-29T03:15:55;102084.72;;;2.52;100.00
49935;BME280;39898;41.762;26.200;2022-12-29T03:18:56;102082.06;;;2.50;100.00
49935;BME280;39898;41.762;26.200;2022-12-29T03:21:42;102083.41;;;2.63;100.00
49935;BME280;39898;41.762;26.200;2022-12-29T03:24:31;102095.63;;;2.66;100.00
49935;BME280;39898;41.762;26.200;2022-12-29T03:27:01;102085.25;;;2.66;100.00
49935;BME280;39898;41.762;26.200;2022-12-29T03:29:31;102084.41;;;2.67;100.00
49935;BME280;39898;41.762;26.200;2022-12-29T03:32:01;102071.47;;;2.67;100.00
49935;BME280;39898;41.762;26.200;2022-12-29T03:34:30;102078.69;;;2.75;100.00
49935;BME280;39898;41.762;26.200;2022-12-29T03:36:59;102076.03;;;2.74;100.00
49935;BME280;39898;41.762;26.200;2022-12-29T03:39:27;102070.63;;;2.68;100.00
49935;BME280;39898;41.762;26.200;2022-12-29T03:42:05;101991.31;;;2.05;100.00
49935;BME280;39898;41.762;26.200;2022-12-29T03:44:36;102067.69;;;2.36;100.00
49935;BME280;39898;41.762;26.200;2022-12-29T03:47:03;102061.38;;;2.30;100.00
49935;BME280;39898;41.762;26.200;2022-12-29T03:49:30;102072.16;;;2.40;100.00
49935;BME280;39898;41.762;26.200;2022-12-29T03:51:57;102089.91;;;2.52;100.00
49935;BME280;39898;41.762;26.200;2022-12-29T03:54:24;102082.13;;;2.52;100.00
49935;BME280;39898;41.762;26.200;2022-12-29T03:56:50;102067.44;;;2.30;100.00
49935;BME280;39898;41.762;26.200;2022-12-29T03:59:17;102071.97;;;2.36;100.00
49935;BME280;39898;41.762;26.200;2022-12-29T04:01:44;102077.09;;;2.34;100.00
49935;BME280;39898;41.762;26.200;2022-12-29T04:04:11;102087.47;;;2.34;100.00
49935;BME280;39898;41.762;26.200;2022-12-29T04:06:37;102085.47;;;2.27;100.00
49935;BME280;39898;41.762;26.200;2022-12-29T04:09:04;102085.59;;;2.30;100.00
49935;BME280;39898;41.762;26.200;2022-12-29T04:11:31;102058.78;;;2.08;100.00
49935;BME280;39898;41.762;26.200;2022-12-29T04:14:00;102095.50;;;2.20;100.00
49935;BME280;39898;41.762;26.200;2022-12-29T04:16:27;102102.81;;;2.08;100.00
49935;BME280;39898;41.762;26.200;2022-12-29T04:18:53;102097.19;;;2.18;100.00
49935;BME280;39898;41.762;26.200;2022-12-29T04:21:20;102077.78;;;2.08;100.00
49935;BME280;39898;41.762;26.200;2022-12-29T04:23:47;102097.19;;;2.18;100.00
49935;BME280;39898;41.762;26.200;2022-12-29T04:26:13;102094.00;;;2.25;100.00
49935;BME280;39898;41.762;26.200;2022-12-29T04:28:40;102099.00;;;2.00;100.00
49935;BME280;39898;41.762;26.200;2022-12-29T04:31:07;102106.91;;;2.03;100.00
49935;BME280;39898;41.762;26.200;2022-12-29T04:33:34;102098.94;;;1.98;100.00
49935;BME280;39898;41.762;26.200;2022-12-29T04:36:01;102110.53;;;2.06;100.00
49935;BME280;39898;41.762;26.200;2022-12-29T04:38:27;102104.38;;;2.04;100.00
49935;BME280;39898;41.762;26.200;2022-12-29T04:40:54;102115.19;;;2.15;100.00
49935;BME280;39898;41.762;26.200;2022-12-29T04:43:21;102113.50;;;2.15;100.00
49935;BME280;39898;41.762;26.200;2022-12-29T04:45:50;102107.28;;;2.12;100.00
49935;BME280;39898;41.762;26.200;2022-12-29T04:48:17;102111.50;;;2.10;100.00
49935;BME280;39898;41.762;26.200;2022-12-29T04:50:44;102116.16;;;2.17;100.00
49935;BME280;39898;41.762;26.200;2022-12-29T04:53:10;102115.69;;;2.27;100.00
49935;BME280;39898;41.762;26.200;2022-12-29T04:55:37;102098.00;;;2.17;100.00
49935;BME280;39898;41.762;26.200;2022-12-29T04:58:04;102114.94;;;2.29;100.00
49935;BME280;39898;41.762;26.200;2022-12-29T05:00:31;102119.41;;;2.33;100.00
49935;BME280;39898;41.762;26.200;2022-12-29T05:02:58;102112.47;;;2.32;100.00
49935;BME280;39898;41.762;26.200;2022-12-29T05:05:25;102118.09;;;2.44;100.00
49935;BME280;39898;41.762;26.200;2022-12-29T05:07:52;102116.22;;;2.40;100.00
49935;BME280;39898;41.762;26.200;2022-12-29T05:10:19;102127.56;;;2.42;100.00
49935;BME280;39898;41.762;26.200;2022-12-29T05:12:45;102109.72;;;2.50;100.00
49935;BME280;39898;41.762;26.200;2022-12-29T05:15:12;102114.38;;;2.59;100.00
49935;BME280;39898;41.762;26.200;2022-12-29T05:18:17;102114.38;;;2.59;100.00
49935;BME280;39898;41.762;26.200;2022-12-29T05:20:45;102108.81;;;2.49;100.00
49935;BME280;39898;41.762;26.200;2022-12-29T05:23:11;102111.34;;;2.48;100.00
49935;BME280;39898;41.762;26.200;2022-12-29T05:25:38;102112.72;;;2.38;100.00
49935;BME280;39898;41.762;26.200;2022-12-29T05:28:05;102110.22;;;2.41;100.00
49935;BME280;39898;41.762;26.200;2022-12-29T05:30:32;102116.09;;;2.37;100.00
49935;BME280;39898;41.762;26.200;2022-12-29T05:32:59;102104.94;;;2.38;100.00
49935;BME280;39898;41.762;26.200;2022-12-29T05:35:26;102104.94;;;2.38;100.00
49935;BME280;39898;41.762;26.200;2022-12-29T05:37:53;102105.16;;;2.44;100.00
49935;BME280;39898;41.762;26.200;2022-12-29T05:40:19;102115.69;;;2.49;100.00
49935;BME280;39898;41.762;26.200;2022-12-29T05:42:46;102101.38;;;2.36;100.00
49935;BME280;39898;41.762;26.200;2022-12-29T05:45:13;102105.59;;;2.34;100.00
49935;BME280;39898;41.762;26.200;2022-12-29T05:47:39;102114.03;;;2.29;100.00
49935;BME280;39898;41.762;26.200;2022-12-29T05:50:06;102103.97;;;2.36;100.00
49935;BME280;39898;41.762;26.200;2022-12-29T05:52:44;102096.97;;;2.34;100.00
49935;BME280;39898;41.762;26.200;2022-12-29T05:55:11;102100.84;;;2.45;100.00
49935;BME280;39898;41.762;26.200;2022-12-29T05:57:38;102121.13;;;2.55;100.00
49935;BME280;39898;41.762;26.200;2022-12-29T06:00:05;102106.59;;;2.59;100.00
49935;BME280;39898;41.762;26.200;2022-12-29T06:02:32;102112.56;;;2.58;100.00
49935;BME280;39898;41.762;26.200;2022-12-29T06:04:59;102108.63;;;2.45;100.00
49935;BME280;39898;41.762;26.200;2022-12-29T06:07:26;102112.09;;;2.23;100.00
49935;BME280;39898;41.762;26.200;2022-12-29T06:09:53;102109.38;;;2.20;100.00
49935;BME280;39898;41.762;26.200;2022-12-29T06:12:20;102108.63;;;2.02;100.00
49935;BME280;39898;41.762;26.200;2022-12-29T06:14:46;102115.63;;;2.05;100.00
49935;BME280;39898;41.762;26.200;2022-12-29T06:17:13;102134.28;;;1.96;100.00
49935;BME280;39898;41.762;26.200;2022-12-29T06:19:40;102087.00;;;1.81;100.00
49935;BME280;39898;41.762;26.200;2022-12-29T06:22:06;102060.88;;;1.75;100.00
49935;BME280;39898;41.762;26.200;2022-12-29T06:24:34;102109.13;;;2.14;100.00
49935;BME280;39898;41.762;26.200;2022-12-29T06:27:00;102120.81;;;2.25;100.00
49935;BME280;39898;41.762;26.200;2022-12-29T06:29:27;102122.97;;;2.15;100.00
49935;BME280;39898;41.762;26.200;2022-12-29T06:31:54;102121.06;;;2.11;100.00
49935;BME280;39898;41.762;26.200;2022-12-29T06:34:24;102118.47;;;2.11;100.00
49935;BME280;39898;41.762;26.200;2022-12-29T06:36:51;102127.38;;;2.17;100.00
49935;BME280;39898;41.762;26.200;2022-12-29T06:39:18;102133.50;;;2.19;100.00
49935;BME280;39898;41.762;26.200;2022-12-29T06:41:45;102133.50;;;2.19;100.00
49935;BME280;39898;41.762;26.200;2022-12-29T06:44:11;102119.66;;;2.19;100.00
49935;BME280;39898;41.762;26.200;2022-12-29T06:46:38;102121.88;;;2.30;100.00
49935;BME280;39898;41.762;26.200;2022-12-29T06:49:05;102136.91;;;2.39;100.00
49935;BME280;39898;41.762;26.200;2022-12-29T06:51:32;102130.78;;;2.37;100.00
49935;BME280;39898;41.762;26.200;2022-12-29T06:53:59;102163.84;;;2.42;100.00
49935;BME280;39898;41.762;26.200;2022-12-29T06:56:25;102143.91;;;2.41;100.00
49935;BME280;39898;41.762;26.200;2022-12-29T06:58:52;102149.84;;;2.39;100.00
49935;BME280;39898;41.762;26.200;2022-12-29T07:01:19;102158.59;;;2.41;100.00
49935;BME280;39898;41.762;26.200;2022-12-29T07:03:46;102151.88;;;2.46;100.00
49935;BME280;39898;41.762;26.200;2022-12-29T07:06:12;102148.16;;;2.39;100.00
49935;BME280;39898;41.762;26.200;2022-12-29T07:08:39;102151.06;;;2.47;100.00
49935;BME280;39898;41.762;26.200;2022-12-29T07:11:06;102149.75;;;2.58;100.00
49935;BME280;39898;41.762;26.200;2022-12-29T07:13:32;102147.34;;;2.63;100.00
49935;BME280;39898;41.762;26.200;2022-12-29T07:15:59;102161.78;;;2.78;100.00
49935;BME280;39898;41.762;26.200;2022-12-29T07:18:26;102156.44;;;2.96;100.00
49935;BME280;39898;41.762;26.200;2022-12-29T07:20:52;102149.63;;;2.99;100.00
49935;BME280;39898;41.762;26.200;2022-12-29T07:23:19;102160.53;;;3.13;100.00
49935;BME280;39898;41.762;26.200;2022-12-29T07:25:46;102153.91;;;3.21;99.95
49935;BME280;39898;41.762;26.200;2022-12-29T07:28:13;102159.31;;;3.03;99.38
49935;BME280;39898;41.762;26.200;2022-12-29T07:30:40;102153.00;;;3.19;99.57
49935;BME280;39898;41.762;26.200;2022-12-29T07:33:06;102147.09;;;3.23;98.99
49935;BME280;39898;41.762;26.200;2022-12-29T07:35:34;102150.41;;;3.19;99.03
49935;BME280;39898;41.762;26.200;2022-12-29T07:38:01;102146.34;;;3.27;99.38
49935;BME280;39898;41.762;26.200;2022-12-29T07:40:27;102149.44;;;3.17;99.13
49935;BME280;39898;41.762;26.200;2022-12-29T07:42:54;102149.41;;;3.39;99.35
49935;BME280;39898;41.762;26.200;2022-12-29T07:45:21;102160.50;;;3.58;99.73
49935;BME280;39898;41.762;26.200;2022-12-29T07:47:49;102140.63;;;3.84;99.64
49935;BME280;39898;41.762;26.200;2022-12-29T07:50:15;102140.22;;;3.97;98.77
49935;BME280;39898;41.762;26.200;2022-12-29T07:52:42;102132.56;;;4.01;97.59
49935;BME280;39898;41.762;26.200;2022-12-29T07:55:09;102146.34;;;4.24;98.29
49935;BME280;39898;41.762;26.200;2022-12-29T07:57:35;102163.31;;;4.39;97.89
49935;BME280;39898;41.762;26.200;2022-12-29T08:00:03;102124.13;;;4.33;97.38
49935;BME280;39898;41.762;26.200;2022-12-29T08:02:30;102126.13;;;4.42;97.42
49935;BME280;39898;41.762;26.200;2022-12-29T08:04:57;102131.81;;;4.57;97.25
49935;BME280;39898;41.762;26.200;2022-12-29T08:07:24;102137.13;;;4.61;96.95
49935;BME280;39898;41.762;26.200;2022-12-29T08:09:50;102137.47;;;4.72;97.91
49935;BME280;39898;41.762;26.200;2022-12-29T08:12:17;102121.22;;;4.79;97.17
49935;BME280;39898;41.762;26.200;2022-12-29T08:14:44;102132.34;;;5.03;96.94
49935;BME280;39898;41.762;26.200;2022-12-29T08:17:10;102130.88;;;5.11;96.32
49935;BME280;39898;41.762;26.200;2022-12-29T08:19:37;102111.19;;;5.21;95.63
49935;BME280;39898;41.762;26.200;2022-12-29T08:22:04;102116.25;;;5.46;95.43
49935;BME280;39898;41.762;26.200;2022-12-29T08:24:31;102122.97;;;5.39;94.86
49935;BME280;39898;41.762;26.200;2022-12-29T08:26:58;102123.75;;;5.66;95.27
49935;BME280;39898;41.762;26.200;2022-12-29T08:29:34;102118.25;;;5.87;94.55
49935;BME280;39898;41.762;26.200;2022-12-29T08:32:01;102125.47;;;5.97;94.01
49935;BME280;39898;41.762;26.200;2022-12-29T08:34:27;102123.09;;;6.06;94.38
49935;BME280;39898;41.762;26.200;2022-12-29T08:36:54;102123.56;;;6.25;94.12
49935;BME280;39898;41.762;26.200;2022-12-29T08:39:21;102120.72;;;6.50;93.59
49935;BME280;39898;41.762;26.200;2022-12-29T08:41:48;102098.56;;;6.70;91.65
49935;BME280;39898;41.762;26.200;2022-12-29T08:44:15;102093.66;;;6.84;90.70
49935;BME280;39898;41.762;26.200;2022-12-29T08:46:42;102109.03;;;7.12;90.06
49935;BME280;39898;41.762;26.200;2022-12-29T08:49:11;102117.13;;;7.24;90.23
49935;BME280;39898;41.762;26.200;2022-12-29T08:51:37;102111.19;;;7.31;89.87
49935;BME280;39898;41.762;26.200;2022-12-29T08:54:04;102103.69;;;7.49;89.23
49935;BME280;39898;41.762;26.200;2022-12-29T08:56:31;102097.00;;;7.63;88.11
49935;BME280;39898;41.762;26.200;2022-12-29T08:58:58;102100.09;;;7.90;89.41
49935;BME280;39898;41.762;26.200;2022-12-29T09:01:24;102098.69;;;8.09;87.84
49935;BME280;39898;41.762;26.200;2022-12-29T09:03:53;102083.91;;;8.12;87.32
49935;BME280;39898;41.762;26.200;2022-12-29T09:06:40;102083.44;;;8.34;87.23
49935;BME280;39898;41.762;26.200;2022-12-29T09:09:07;102041.50;;;8.31;85.66
49935;BME280;39898;41.762;26.200;2022-12-29T09:11:33;102083.72;;;8.55;85.75
49935;BME280;39898;41.762;26.200;2022-12-29T09:14:00;102091.63;;;8.58;86.23
49935;BME280;39898;41.762;26.200;2022-12-29T09:16:27;102082.13;;;8.63;85.56
49935;BME280;39898;41.762;26.200;2022-12-29T09:18:54;102078.94;;;8.87;86.11
49935;BME280;39898;41.762;26.200;2022-12-29T09:21:20;102065.16;;;9.01;84.29
49935;BME280;39898;41.762;26.200;2022-12-29T09:23:50;102054.72;;;9.04;83.85
49935;BME280;39898;41.762;26.200;2022-12-29T09:26:16;102075.84;;;9.18;84.05
49935;BME280;39898;41.762;26.200;2022-12-29T09:28:43;102064.56;;;9.23;83.03
49935;BME280;39898;41.762;26.200;2022-12-29T09:31:11;102060.41;;;9.42;83.22
49935;BME280;39898;41.762;26.200;2022-12-29T09:33:38;102044.88;;;9.60;82.66
49935;BME280;39898;41.762;26.200;2022-12-29T09:36:05;102048.56;;;9.80;81.47
49935;BME280;39898;41.762;26.200;2022-12-29T09:38:32;102036.47;;;9.99;80.33
49935;BME280;39898;41.762;26.200;2022-12-29T09:41:05;102029.66;;;10.22;80.62
49935;BME280;39898;41.762;26.200;2022-12-29T09:46:28;102016.59;;;10.32;78.27
49935;BME280;39898;41.762;26.200;2022-12-29T09:49:00;102025.50;;;10.60;78.20
49935;BME280;39898;41.762;26.200;2022-12-29T09:51:33;102015.94;;;10.74;78.12
49935;BME280;39898;41.762;26.200;2022-12-29T09:57:24;101990.66;;;11.04;75.67
49935;BME280;39898;41.762;26.200;2022-12-29T09:59:55;102001.22;;;11.16;74.84
49935;BME280;39898;41.762;26.200;2022-12-29T10:02:31;101998.56;;;11.04;74.11
49935;BME280;39898;41.762;26.200;2022-12-29T10:04:59;101988.06;;;11.16;74.09
49935;BME280;39898;41.762;26.200;2022-12-29T10:23:46;101935.50;;;11.22;72.20
49935;BME280;39898;41.762;26.200;2022-12-29T10:26:27;101952.16;;;11.57;73.00
49935;BME280;39898;41.762;26.200;2022-12-29T10:29:02;101966.25;;;11.83;71.15
49935;BME280;39898;41.762;26.200;2022-12-29T10:31:43;101957.41;;;12.21;71.36
49935;BME280;39898;41.762;26.200;2022-12-29T10:34:26;101955.59;;;12.36;68.61
49935;BME280;39898;41.762;26.200;2022-12-29T10:39:45;101943.34;;;12.23;70.11
49935;BME280;39898;41.762;26.200;2022-12-29T10:42:35;101948.59;;;12.25;69.41
49935;BME280;39898;41.762;26.200;2022-12-29T10:45:07;101947.72;;;12.32;68.63
49935;BME280;39898;41.762;26.200;2022-12-29T10:47:50;101929.22;;;12.45;67.76
49935;BME280;39898;41.762;26.200;2022-12-29T10:50:19;101940.53;;;12.73;68.24
49935;BME280;39898;41.762;26.200;2022-12-29T10:52:46;101943.28;;;12.46;67.43
49935;BME280;39898;41.762;26.200;2022-12-29T10:55:22;101945.91;;;12.49;67.70
49935;BME280;39898;41.762;26.200;2022-12-29T10:57:55;101923.97;;;12.39;68.07
49935;BME280;39898;41.762;26.200;2022-12-29T11:00:23;101928.28;;;12.60;67.53
49935;BME280;39898;41.762;26.200;2022-12-29T11:03:09;101926.31;;;13.04;67.96
49935;BME280;39898;41.762;26.200;2022-12-29T11:08:25;101912.28;;;12.93;67.25
49935;BME280;39898;41.762;26.200;2022-12-29T11:11:05;101884.09;;;13.08;65.86
49935;BME280;39898;41.762;26.200;2022-12-29T11:13:56;101911.31;;;13.16;64.54
49935;BME280;39898;41.762;26.200;2022-12-29T11:16:28;101878.00;;;12.93;66.47
49935;BME280;39898;41.762;26.200;2022-12-29T11:18:57;101903.38;;;13.18;66.43
49935;BME280;39898;41.762;26.200;2022-12-29T11:24:20;101870.06;;;13.05;65.76
49935;BME280;39898;41.762;26.200;2022-12-29T11:26:49;101916.34;;;13.49;65.09
49935;BME280;39898;41.762;26.200;2022-12-29T11:29:20;101879.13;;;13.73;64.98
49935;BME280;39898;41.762;26.200;2022-12-29T11:31:52;101877.75;;;14.21;63.98
49935;BME280;39898;41.762;26.200;2022-12-29T11:34:23;101828.75;;;13.91;62.45
49935;BME280;39898;41.762;26.200;2022-12-29T11:36:58;101873.22;;;14.33;62.36
49935;BME280;39898;41.762;26.200;2022-12-29T11:40:15;101871.38;;;14.40;63.26
49935;BME280;39898;41.762;26.200;2022-12-29T11:42:41;101872.94;;;14.53;61.58
49935;BME280;39898;41.762;26.200;2022-12-29T11:45:23;101858.47;;;14.11;61.31
49935;BME280;39898;41.762;26.200;2022-12-29T11:47:54;101839.66;;;13.60;62.75
49935;BME280;39898;41.762;26.200;2022-12-29T11:50:24;101859.66;;;13.85;63.63
49935;BME280;39898;41.762;26.200;2022-12-29T11:53:02;101849.00;;;13.94;62.72
49935;BME280;39898;41.762;26.200;2022-12-29T11:55:30;101835.69;;;14.01;63.49
49935;BME280;39898;41.762;26.200;2022-12-29T11:57:59;101857.84;;;13.88;63.18
49935;BME280;39898;41.762;26.200;2022-12-29T12:00:31;101855.97;;;14.01;62.56
49935;BME280;39898;41.762;26.200;2022-12-29T12:03:04;101857.97;;;13.79;62.91
49935;BME280;39898;41.762;26.200;2022-12-29T12:11:20;101849.38;;;13.58;65.89
49935;BME280;39898;41.762;26.200;2022-12-29T12:16:19;101850.47;;;13.34;65.03
49935;BME280;39898;41.762;26.200;2022-12-29T12:18:51;101848.44;;;13.63;65.42
49935;BME280;39898;41.762;26.200;2022-12-29T12:21:39;101854.13;;;14.04;63.27
49935;BME280;39898;41.762;26.200;2022-12-29T12:24:49;101843.41;;;13.39;63.80
49935;BME280;39898;41.762;26.200;2022-12-29T12:30:23;101835.63;;;13.23;64.65
49935;BME280;39898;41.762;26.200;2022-12-29T12:38:33;101842.03;;;12.86;66.33
49935;BME280;39898;41.762;26.200;2022-12-29T12:41:16;101834.91;;;13.01;67.46
49935;BME280;39898;41.762;26.200;2022-12-29T12:44:27;101830.00;;;12.46;67.87
49935;BME280;39898;41.762;26.200;2022-12-29T12:47:20;101837.16;;;12.15;69.11
49935;BME280;39898;41.762;26.200;2022-12-29T12:52:50;101835.44;;;12.06;70.28
49935;BME280;39898;41.762;26.200;2022-12-29T13:04:00;101808.28;;;11.89;70.19
49935;BME280;39898;41.762;26.200;2022-12-29T13:07:00;101834.59;;;11.94;70.88
49935;BME280;39898;41.762;26.200;2022-12-29T13:12:18;101802.19;;;11.60;71.10
49935;BME280;39898;41.762;26.200;2022-12-29T13:20:02;101833.81;;;11.62;71.65
49935;BME280;39898;41.762;26.200;2022-12-29T13:22:57;101829.41;;;11.47;72.00
49935;BME280;39898;41.762;26.200;2022-12-29T13:30:37;101832.06;;;11.65;71.12
49935;BME280;39898;41.762;26.200;2022-12-29T13:33:20;101752.28;;;11.18;71.43
49935;BME280;39898;41.762;26.200;2022-12-29T13:41:04;101845.19;;;11.38;72.25
49935;BME280;39898;41.762;26.200;2022-12-29T13:43:34;101833.81;;;11.33;72.26
49935;BME280;39898;41.762;26.200;2022-12-29T13:46:07;101829.44;;;11.31;72.31
49935;BME280;39898;41.762;26.200;2022-12-29T13:48:52;101846.97;;;11.44;72.10
49935;BME280;39898;41.762;26.200;2022-12-29T13:51:21;101847.81;;;11.43;71.57
49935;BME280;39898;41.762;26.200;2022-12-29T13:57:06;101856.59;;;11.31;72.25
49935;BME280;39898;41.762;26.200;2022-12-29T14:04:57;101863.63;;;11.28;72.50
49935;BME280;39898;41.762;26.200;2022-12-29T14:07:25;101841.69;;;11.21;74.06
49935;BME280;39898;41.762;26.200;2022-12-29T14:09:54;101846.09;;;11.21;73.21
49935;BME280;39898;41.762;26.200;2022-12-29T14:17:39;101852.22;;;11.14;73.13
49935;BME280;39898;41.762;26.200;2022-12-29T14:20:20;101850.47;;;11.10;73.44
49935;BME280;39898;41.762;26.200;2022-12-29T14:22:59;101841.69;;;10.99;73.83
49935;BME280;39898;41.762;26.200;2022-12-29T14:25:56;101853.94;;;10.92;74.66
49935;BME280;39898;41.762;26.200;2022-12-29T14:28:26;101855.69;;;10.78;74.49
49935;BME280;39898;41.762;26.200;2022-12-29T14:31:04;101867.97;;;10.79;74.56
49935;BME280;39898;41.762;26.200;2022-12-29T14:33:33;101847.78;;;10.62;75.06
49935;BME280;39898;41.762;26.200;2022-12-29T14:36:42;101847.75;;;10.56;75.35
49935;BME280;39898;41.762;26.200;2022-12-29T14:39:36;101848.59;;;10.43;76.06
49935;BME280;39898;41.762;26.200;2022-12-29T14:47:34;101845.91;;;10.23;76.34
49935;BME280;39898;41.762;26.200;2022-12-29T14:50:14;101825.66;;;10.01;76.20
49935;BME280;39898;41.762;26.200;2022-12-29T14:52:47;101843.22;;;10.10;76.79
49935;BME280;39898;41.762;26.200;2022-12-29T14:55:43;101865.88;;;9.99;76.61
49935;BME280;39898;41.762;26.200;2022-12-29T14:58:22;101851.78;;;9.84;78.01
49935;BME280;39898;41.762;26.200;2022-12-29T15:00:52;101841.28;;;9.77;77.18
49935;BME280;39898;41.762;26.200;2022-12-29T15:05:54;101841.25;;;9.74;77.79
49935;BME280;39898;41.762;26.200;2022-12-29T15:08:26;101838.75;;;9.97;78.82
49935;BME280;39898;41.762;26.200;2022-12-29T15:10:58;101844.88;;;9.97;78.14
49935;BME280;39898;41.762;26.200;2022-12-29T15:13:39;101809.69;;;9.60;77.65
49935;BME280;39898;41.762;26.200;2022-12-29T15:16:22;101838.44;;;9.42;79.33
49935;BME280;39898;41.762;26.200;2022-12-29T15:18:49;101847.13;;;9.34;79.36
49935;BME280;39898;41.762;26.200;2022-12-29T15:21:24;101831.25;;;9.20;79.76
49935;BME280;39898;41.762;26.200;2022-12-29T15:23:51;101816.28;;;9.03;80.24
49935;BME280;39898;41.762;26.200;2022-12-29T15:26:18;101843.47;;;9.17;80.04
49935;BME280;39898;41.762;26.200;2022-12-29T15:28:52;101848.66;;;9.09;80.12